Search for airport 
image banner adimage banner adimage banner ad
image banner ad

1CL6 - Lake Park Helistop

Located in Sacramento, United States

ICAO - 1CL6, IATA -

Data provided by Airmate  

General information

Coordinates: N38°32'52" W121°22'38"
Elevation is 45 feet MSL.
Magnetic variation is 16° East
View others Airports in California

Operational data

Special qualification required
Current time UTC:
Current local time:
Weather at : KMHR - Sacramento Mather ( 7 km )
METAR: KMHR 221255Z 12006KT 10SM SKC 13/12 A2988
TAF: KMHR 221123Z 2212/2312 15010KT P6SM SKC FM221800 21011G17KT P6SM SKC FM230600 15009KT P6SM SKC
View NOTAMs / SUP AIP / TFR affecting this airport [VIEW]
Communications frequencies: [VIEW]

Runways:

Airport contact information

Address: Sacramento United States

Satellite view of 1CL6